sensor_id;sensor_type;location;lat;lon;timestamp;P1;P2;P0
49708;PMS5003;35601;55.902;13.606;2023-04-06T00:01:13;5;4;
49708;PMS5003;35601;55.902;13.606;2023-04-06T00:03:39;3;3;
49708;PMS5003;35601;55.902;13.606;2023-04-06T00:06:04;3;3;
49708;PMS5003;35601;55.902;13.606;2023-04-06T00:08:30;5;5;
49708;PMS5003;35601;55.902;13.606;2023-04-06T00:10:55;5;4;
49708;PMS5003;35601;55.902;13.606;2023-04-06T00:13:20;6;5;
49708;PMS5003;35601;55.902;13.606;2023-04-06T00:15:47;6;5;
49708;PMS5003;35601;55.902;13.606;2023-04-06T00:18:12;4;4;
49708;PMS5003;35601;55.902;13.606;2023-04-06T00:20:36;5;5;
49708;PMS5003;35601;55.902;13.606;2023-04-06T00:23:02;4;4;
49708;PMS5003;35601;55.902;13.606;2023-04-06T00:25:27;5;5;
49708;PMS5003;35601;55.902;13.606;2023-04-06T00:27:54;5;4;
49708;PMS5003;35601;55.902;13.606;2023-04-06T00:30:18;5;5;
49708;PMS5003;35601;55.902;13.606;2023-04-06T00:32:43;8;6;
49708;PMS5003;35601;55.902;13.606;2023-04-06T00:35:09;6;6;
49708;PMS5003;35601;55.902;13.606;2023-04-06T00:37:35;4;4;
49708;PMS5003;35601;55.902;13.606;2023-04-06T00:40:00;5;4;
49708;PMS5003;35601;55.902;13.606;2023-04-06T00:42:25;4;4;
49708;PMS5003;35601;55.902;13.606;2023-04-06T00:44:52;3;3;
49708;PMS5003;35601;55.902;13.606;2023-04-06T00:47:15;6;5;
49708;PMS5003;35601;55.902;13.606;2023-04-06T00:49:41;7;6;
49708;PMS5003;35601;55.902;13.606;2023-04-06T00:52:07;5;5;
49708;PMS5003;35601;55.902;13.606;2023-04-06T00:54:32;6;5;
49708;PMS5003;35601;55.902;13.606;2023-04-06T00:56:57;4;4;
49708;PMS5003;35601;55.902;13.606;2023-04-06T00:59:22;7;6;
49708;PMS5003;35601;55.902;13.606;2023-04-06T01:01:48;6;5;
49708;PMS5003;35601;55.902;13.606;2023-04-06T01:04:13;6;6;
49708;PMS5003;35601;55.902;13.606;2023-04-06T01:06:39;5;5;
49708;PMS5003;35601;55.902;13.606;2023-04-06T01:09:04;5;5;
49708;PMS5003;35601;55.902;13.606;2023-04-06T01:11:29;6;5;
49708;PMS5003;35601;55.902;13.606;2023-04-06T01:13:54;11;8;
49708;PMS5003;35601;55.902;13.606;2023-04-06T01:16:20;8;7;
49708;PMS5003;35601;55.902;13.606;2023-04-06T01:18:47;13;9;
49708;PMS5003;35601;55.902;13.606;2023-04-06T01:21:11;11;11;
49708;PMS5003;35601;55.902;13.606;2023-04-06T01:23:36;12;11;
49708;PMS5003;35601;55.902;13.606;2023-04-06T01:26:01;15;11;
49708;PMS5003;35601;55.902;13.606;2023-04-06T01:28:26;15;13;
49708;PMS5003;35601;55.902;13.606;2023-04-06T01:30:52;11;9;
49708;PMS5003;35601;55.902;13.606;2023-04-06T01:33:17;13;9;
49708;PMS5003;35601;55.902;13.606;2023-04-06T01:35:43;9;9;
49708;PMS5003;35601;55.902;13.606;2023-04-06T01:38:08;12;9;
49708;PMS5003;35601;55.902;13.606;2023-04-06T01:40:33;16;14;
49708;PMS5003;35601;55.902;13.606;2023-04-06T01:42:59;15;10;
49708;PMS5003;35601;55.902;13.606;2023-04-06T01:45:25;18;15;
49708;PMS5003;35601;55.902;13.606;2023-04-06T01:47:49;14;13;
49708;PMS5003;35601;55.902;13.606;2023-04-06T01:50:15;14;13;
49708;PMS5003;35601;55.902;13.606;2023-04-06T01:52:40;16;14;
49708;PMS5003;35601;55.902;13.606;2023-04-06T01:55:06;16;14;
49708;PMS5003;35601;55.902;13.606;2023-04-06T01:57:31;17;15;
49708;PMS5003;35601;55.902;13.606;2023-04-06T01:59:57;15;15;
49708;PMS5003;35601;55.902;13.606;2023-04-06T02:02:22;17;15;
49708;PMS5003;35601;55.902;13.606;2023-04-06T02:04:47;16;16;
49708;PMS5003;35601;55.902;13.606;2023-04-06T02:07:13;14;14;
49708;PMS5003;35601;55.902;13.606;2023-04-06T02:09:38;19;16;
49708;PMS5003;35601;55.902;13.606;2023-04-06T02:12:03;16;14;
49708;PMS5003;35601;55.902;13.606;2023-04-06T02:14:28;18;14;
49708;PMS5003;35601;55.902;13.606;2023-04-06T02:16:54;14;14;
49708;PMS5003;35601;55.902;13.606;2023-04-06T02:19:20;13;12;
49708;PMS5003;35601;55.902;13.606;2023-04-06T02:21:45;18;14;
49708;PMS5003;35601;55.902;13.606;2023-04-06T02:24:10;17;15;
49708;PMS5003;35601;55.902;13.606;2023-04-06T02:26:36;14;14;
49708;PMS5003;35601;55.902;13.606;2023-04-06T02:29:01;13;11;
49708;PMS5003;35601;55.902;13.606;2023-04-06T02:31:28;13;12;
49708;PMS5003;35601;55.902;13.606;2023-04-06T02:33:51;18;14;
49708;PMS5003;35601;55.902;13.606;2023-04-06T02:36:17;14;14;
49708;PMS5003;35601;55.902;13.606;2023-04-06T02:38:42;16;13;
49708;PMS5003;35601;55.902;13.606;2023-04-06T02:41:10;17;13;
49708;PMS5003;35601;55.902;13.606;2023-04-06T02:43:33;12;9;
49708;PMS5003;35601;55.902;13.606;2023-04-06T02:45:58;14;14;
49708;PMS5003;35601;55.902;13.606;2023-04-06T02:48:24;13;9;
49708;PMS5003;35601;55.902;13.606;2023-04-06T02:50:49;11;9;
49708;PMS5003;35601;55.902;13.606;2023-04-06T02:53:14;13;11;
49708;PMS5003;35601;55.902;13.606;2023-04-06T02:55:40;12;12;
49708;PMS5003;35601;55.902;13.606;2023-04-06T02:58:06;12;9;
49708;PMS5003;35601;55.902;13.606;2023-04-06T03:00:31;14;11;
49708;PMS5003;35601;55.902;13.606;2023-04-06T03:02:56;13;11;
49708;PMS5003;35601;55.902;13.606;2023-04-06T03:05:21;8;8;
49708;PMS5003;35601;55.902;13.606;2023-04-06T03:07:47;9;9;
49708;PMS5003;35601;55.902;13.606;2023-04-06T03:10:12;8;7;
49708;PMS5003;35601;55.902;13.606;2023-04-06T03:12:37;12;9;
49708;PMS5003;35601;55.902;13.606;2023-04-06T03:15:03;13;11;
49708;PMS5003;35601;55.902;13.606;2023-04-06T03:17:28;10;7;
49708;PMS5003;35601;55.902;13.606;2023-04-06T03:19:53;10;10;
49708;PMS5003;35601;55.902;13.606;2023-04-06T03:22:19;8;8;
49708;PMS5003;35601;55.902;13.606;2023-04-06T03:24:44;12;11;
49708;PMS5003;35601;55.902;13.606;2023-04-06T03:27:09;11;10;
49708;PMS5003;35601;55.902;13.606;2023-04-06T03:29:34;12;8;
49708;PMS5003;35601;55.902;13.606;2023-04-06T03:32:00;10;7;
49708;PMS5003;35601;55.902;13.606;2023-04-06T03:34:25;11;8;
49708;PMS5003;35601;55.902;13.606;2023-04-06T03:36:50;11;8;
49708;PMS5003;35601;55.902;13.606;2023-04-06T03:39:16;12;11;
49708;PMS5003;35601;55.902;13.606;2023-04-06T03:41:41;11;11;
49708;PMS5003;35601;55.902;13.606;2023-04-06T03:44:07;7;7;
49708;PMS5003;35601;55.902;13.606;2023-04-06T03:46:32;14;13;
49708;PMS5003;35601;55.902;13.606;2023-04-06T03:48:58;14;12;
49708;PMS5003;35601;55.902;13.606;2023-04-06T03:51:24;15;12;
49708;PMS5003;35601;55.902;13.606;2023-04-06T03:53:48;12;12;
49708;PMS5003;35601;55.902;13.606;2023-04-06T03:56:14;15;12;
49708;PMS5003;35601;55.902;13.606;2023-04-06T03:58:39;15;13;
49708;PMS5003;35601;55.902;13.606;2023-04-06T04:01:04;11;11;
49708;PMS5003;35601;55.902;13.606;2023-04-06T04:03:30;13;12;
49708;PMS5003;35601;55.902;13.606;2023-04-06T04:05:55;13;12;
49708;PMS5003;35601;55.902;13.606;2023-04-06T04:08:21;15;13;
49708;PMS5003;35601;55.902;13.606;2023-04-06T04:10:46;15;14;
49708;PMS5003;35601;55.902;13.606;2023-04-06T04:13:12;11;10;
49708;PMS5003;35601;55.902;13.606;2023-04-06T04:15:37;17;16;
49708;PMS5003;35601;55.902;13.606;2023-04-06T04:18:02;15;13;
49708;PMS5003;35601;55.902;13.606;2023-04-06T04:20:28;13;13;
49708;PMS5003;35601;55.902;13.606;2023-04-06T04:22:53;14;14;
49708;PMS5003;35601;55.902;13.606;2023-04-06T04:25:18;15;13;
49708;PMS5003;35601;55.902;13.606;2023-04-06T04:27:44;10;10;
49708;PMS5003;35601;55.902;13.606;2023-04-06T04:30:10;14;12;
49708;PMS5003;35601;55.902;13.606;2023-04-06T04:32:35;14;12;
49708;PMS5003;35601;55.902;13.606;2023-04-06T04:35:00;12;11;
49708;PMS5003;35601;55.902;13.606;2023-04-06T04:37:26;13;10;
49708;PMS5003;35601;55.902;13.606;2023-04-06T04:39:51;14;10;
49708;PMS5003;35601;55.902;13.606;2023-04-06T04:42:16;12;11;
49708;PMS5003;35601;55.902;13.606;2023-04-06T04:44:42;13;11;
49708;PMS5003;35601;55.902;13.606;2023-04-06T04:47:07;14;10;
49708;PMS5003;35601;55.902;13.606;2023-04-06T04:49:32;10;7;
49708;PMS5003;35601;55.902;13.606;2023-04-06T04:51:58;16;11;
49708;PMS5003;35601;55.902;13.606;2023-04-06T04:54:24;10;7;
49708;PMS5003;35601;55.902;13.606;2023-04-06T04:56:49;7;6;
49708;PMS5003;35601;55.902;13.606;2023-04-06T04:59:14;8;8;
49708;PMS5003;35601;55.902;13.606;2023-04-06T05:01:39;7;5;
49708;PMS5003;35601;55.902;13.606;2023-04-06T05:04:05;11;7;
49708;PMS5003;35601;55.902;13.606;2023-04-06T05:06:32;7;7;
49708;PMS5003;35601;55.902;13.606;2023-04-06T05:08:56;11;8;
49708;PMS5003;35601;55.902;13.606;2023-04-06T05:11:21;7;7;
49708;PMS5003;35601;55.902;13.606;2023-04-06T05:13:47;7;7;
49708;PMS5003;35601;55.902;13.606;2023-04-06T05:16:12;11;6;
49708;PMS5003;35601;55.902;13.606;2023-04-06T05:18:37;10;6;
49708;PMS5003;35601;55.902;13.606;2023-04-06T05:21:04;8;7;
49708;PMS5003;35601;55.902;13.606;2023-04-06T05:23:28;7;6;
49708;PMS5003;35601;55.902;13.606;2023-04-06T05:25:53;11;8;
49708;PMS5003;35601;55.902;13.606;2023-04-06T05:28:19;4;4;
49708;PMS5003;35601;55.902;13.606;2023-04-06T05:30:44;8;7;
49708;PMS5003;35601;55.902;13.606;2023-04-06T05:33:10;7;7;
49708;PMS5003;35601;55.902;13.606;2023-04-06T05:35:35;4;4;
49708;PMS5003;35601;55.902;13.606;2023-04-06T05:38:02;10;6;
49708;PMS5003;35601;55.902;13.606;2023-04-06T05:40:26;11;10;
49708;PMS5003;35601;55.902;13.606;2023-04-06T05:42:52;12;10;
49708;PMS5003;35601;55.902;13.606;2023-04-06T05:45:17;18;14;
49708;PMS5003;35601;55.902;13.606;2023-04-06T05:47:41;15;13;
49708;PMS5003;35601;55.902;13.606;2023-04-06T05:50:07;23;19;
49708;PMS5003;35601;55.902;13.606;2023-04-06T05:52:34;7;7;
49708;PMS5003;35601;55.902;13.606;2023-04-06T05:54:57;15;13;
49708;PMS5003;35601;55.902;13.606;2023-04-06T05:57:24;15;11;
49708;PMS5003;35601;55.902;13.606;2023-04-06T05:59:50;9;9;
49708;PMS5003;35601;55.902;13.606;2023-04-06T06:02:15;18;16;
49708;PMS5003;35601;55.902;13.606;2023-04-06T06:04:40;13;12;
49708;PMS5003;35601;55.902;13.606;2023-04-06T06:07:05;8;7;
49708;PMS5003;35601;55.902;13.606;2023-04-06T06:09:29;7;5;
49708;PMS5003;35601;55.902;13.606;2023-04-06T06:11:55;7;7;
49708;PMS5003;35601;55.902;13.606;2023-04-06T06:14:20;6;6;
49708;PMS5003;35601;55.902;13.606;2023-04-06T06:16:47;10;8;
49708;PMS5003;35601;55.902;13.606;2023-04-06T06:19:12;7;6;
49708;PMS5003;35601;55.902;13.606;2023-04-06T06:21:37;8;8;
49708;PMS5003;35601;55.902;13.606;2023-04-06T06:24:02;11;10;
49708;PMS5003;35601;55.902;13.606;2023-04-06T06:26:27;6;5;
49708;PMS5003;35601;55.902;13.606;2023-04-06T06:28:53;9;8;
49708;PMS5003;35601;55.902;13.606;2023-04-06T06:31:19;9;9;
49708;PMS5003;35601;55.902;13.606;2023-04-06T06:33:45;10;8;
49708;PMS5003;35601;55.902;13.606;2023-04-06T06:36:10;11;9;
49708;PMS5003;35601;55.902;13.606;2023-04-06T06:38:34;14;9;
49708;PMS5003;35601;55.902;13.606;2023-04-06T06:40:59;8;7;
49708;PMS5003;35601;55.902;13.606;2023-04-06T06:43:25;6;6;
49708;PMS5003;35601;55.902;13.606;2023-04-06T06:45:50;6;5;
49708;PMS5003;35601;55.902;13.606;2023-04-06T06:48:15;8;8;
49708;PMS5003;35601;55.902;13.606;2023-04-06T06:50:41;10;10;
49708;PMS5003;35601;55.902;13.606;2023-04-06T06:53:06;10;9;
49708;PMS5003;35601;55.902;13.606;2023-04-06T06:55:33;7;6;
49708;PMS5003;35601;55.902;13.606;2023-04-06T06:57:56;7;7;
49708;PMS5003;35601;55.902;13.606;2023-04-06T07:00:22;6;6;
49708;PMS5003;35601;55.902;13.606;2023-04-06T07:02:47;11;8;
49708;PMS5003;35601;55.902;13.606;2023-04-06T07:05:12;12;11;
49708;PMS5003;35601;55.902;13.606;2023-04-06T07:07:38;23;19;
49708;PMS5003;35601;55.902;13.606;2023-04-06T07:10:05;10;10;
49708;PMS5003;35601;55.902;13.606;2023-04-06T07:12:28;8;8;
49708;PMS5003;35601;55.902;13.606;2023-04-06T07:14:54;12;7;
49708;PMS5003;35601;55.902;13.606;2023-04-06T07:17:19;13;12;
49708;PMS5003;35601;55.902;13.606;2023-04-06T07:19:44;8;8;
49708;PMS5003;35601;55.902;13.606;2023-04-06T07:22:10;11;11;
49708;PMS5003;35601;55.902;13.606;2023-04-06T07:24:35;5;5;
49708;PMS5003;35601;55.902;13.606;2023-04-06T07:27:00;10;10;
49708;PMS5003;35601;55.902;13.606;2023-04-06T07:29:26;6;6;
49708;PMS5003;35601;55.902;13.606;2023-04-06T07:31:51;6;5;
49708;PMS5003;35601;55.902;13.606;2023-04-06T07:34:16;5;5;
49708;PMS5003;35601;55.902;13.606;2023-04-06T07:36:41;6;6;
49708;PMS5003;35601;55.902;13.606;2023-04-06T07:39:07;5;5;
49708;PMS5003;35601;55.902;13.606;2023-04-06T07:41:32;7;7;
49708;PMS5003;35601;55.902;13.606;2023-04-06T07:43:57;7;4;
49708;PMS5003;35601;55.902;13.606;2023-04-06T07:46:23;5;5;
49708;PMS5003;35601;55.902;13.606;2023-04-06T07:48:48;5;4;
49708;PMS5003;35601;55.902;13.606;2023-04-06T07:51:13;6;5;
49708;PMS5003;35601;55.902;13.606;2023-04-06T07:53:38;4;4;
49708;PMS5003;35601;55.902;13.606;2023-04-06T07:56:04;5;5;
49708;PMS5003;35601;55.902;13.606;2023-04-06T07:58:29;5;5;
49708;PMS5003;35601;55.902;13.606;2023-04-06T08:00:55;4;3;
49708;PMS5003;35601;55.902;13.606;2023-04-06T08:03:20;4;4;
49708;PMS5003;35601;55.902;13.606;2023-04-06T08:05:45;4;3;
49708;PMS5003;35601;55.902;13.606;2023-04-06T08:08:10;5;4;
49708;PMS5003;35601;55.902;13.606;2023-04-06T08:10:35;4;3;
49708;PMS5003;35601;55.902;13.606;2023-04-06T08:13:01;5;3;
49708;PMS5003;35601;55.902;13.606;2023-04-06T08:15:27;4;2;
49708;PMS5003;35601;55.902;13.606;2023-04-06T08:17:52;3;3;
49708;PMS5003;35601;55.902;13.606;2023-04-06T08:20:17;3;3;
49708;PMS5003;35601;55.902;13.606;2023-04-06T08:22:42;3;3;
49708;PMS5003;35601;55.902;13.606;2023-04-06T08:25:07;3;3;
49708;PMS5003;35601;55.902;13.606;2023-04-06T08:27:34;3;3;
49708;PMS5003;35601;55.902;13.606;2023-04-06T08:29:58;4;4;
49708;PMS5003;35601;55.902;13.606;2023-04-06T08:32:24;6;3;
49708;PMS5003;35601;55.902;13.606;2023-04-06T08:34:48;4;2;
49708;PMS5003;35601;55.902;13.606;2023-04-06T08:37:13;3;3;
49708;PMS5003;35601;55.902;13.606;2023-04-06T08:39:39;2;2;
49708;PMS5003;35601;55.902;13.606;2023-04-06T08:42:04;2;2;
49708;PMS5003;35601;55.902;13.606;2023-04-06T08:44:30;4;3;
49708;PMS5003;35601;55.902;13.606;2023-04-06T08:46:55;2;2;
49708;PMS5003;35601;55.902;13.606;2023-04-06T08:49:20;1;1;
49708;PMS5003;35601;55.902;13.606;2023-04-06T08:51:45;3;2;
49708;PMS5003;35601;55.902;13.606;2023-04-06T08:54:10;3;2;
49708;PMS5003;35601;55.902;13.606;2023-04-06T08:56:37;9;6;
49708;PMS5003;35601;55.902;13.606;2023-04-06T08:59:02;4;2;
49708;PMS5003;35601;55.902;13.606;2023-04-06T09:01:26;2;2;
49708;PMS5003;35601;55.902;13.606;2023-04-06T09:03:53;4;4;
49708;PMS5003;35601;55.902;13.606;2023-04-06T09:06:16;3;3;
49708;PMS5003;35601;55.902;13.606;2023-04-06T09:08:42;6;5;
49708;PMS5003;35601;55.902;13.606;2023-04-06T09:11:07;4;3;
49708;PMS5003;35601;55.902;13.606;2023-04-06T09:15:58;4;4;
49708;PMS5003;35601;55.902;13.606;2023-04-06T09:18:27;5;4;
49708;PMS5003;35601;55.902;13.606;2023-04-06T09:23:18;3;3;
49708;PMS5003;35601;55.902;13.606;2023-04-06T09:25:40;6;5;
49708;PMS5003;35601;55.902;13.606;2023-04-06T09:28:05;5;4;
49708;PMS5003;35601;55.902;13.606;2023-04-06T09:30:30;4;3;
49708;PMS5003;35601;55.902;13.606;2023-04-06T09:32:55;5;3;
49708;PMS5003;35601;55.902;13.606;2023-04-06T09:35:22;4;4;
49708;PMS5003;35601;55.902;13.606;2023-04-06T09:37:46;3;3;
49708;PMS5003;35601;55.902;13.606;2023-04-06T09:40:12;4;4;
49708;PMS5003;35601;55.902;13.606;2023-04-06T09:42:36;4;4;
49708;PMS5003;35601;55.902;13.606;2023-04-06T09:45:01;5;5;
49708;PMS5003;35601;55.902;13.606;2023-04-06T09:47:26;4;4;
49708;PMS5003;35601;55.902;13.606;2023-04-06T09:49:55;5;5;
49708;PMS5003;35601;55.902;13.606;2023-04-06T09:52:18;5;5;
49708;PMS5003;35601;55.902;13.606;2023-04-06T09:54:43;7;6;
49708;PMS5003;35601;55.902;13.606;2023-04-06T09:57:11;13;12;
49708;PMS5003;35601;55.902;13.606;2023-04-06T09:59:37;7;5;
49708;PMS5003;35601;55.902;13.606;2023-04-06T10:01:58;13;9;
49708;PMS5003;35601;55.902;13.606;2023-04-06T10:04:27;10;10;
49708;PMS5003;35601;55.902;13.606;2023-04-06T10:06:51;11;11;
49708;PMS5003;35601;55.902;13.606;2023-04-06T10:09:16;10;8;
49708;PMS5003;35601;55.902;13.606;2023-04-06T10:11:41;8;7;
49708;PMS5003;35601;55.902;13.606;2023-04-06T10:14:06;6;6;
49708;PMS5003;35601;55.902;13.606;2023-04-06T10:16:31;9;7;
49708;PMS5003;35601;55.902;13.606;2023-04-06T10:18:56;8;8;
49708;PMS5003;35601;55.902;13.606;2023-04-06T10:21:21;9;7;
49708;PMS5003;35601;55.902;13.606;2023-04-06T10:23:48;10;8;
49708;PMS5003;35601;55.902;13.606;2023-04-06T10:26:13;11;8;
49708;PMS5003;35601;55.902;13.606;2023-04-06T10:28:37;8;8;
49708;PMS5003;35601;55.902;13.606;2023-04-06T10:31:04;7;7;
49708;PMS5003;35601;55.902;13.606;2023-04-06T10:33:29;8;8;
49708;PMS5003;35601;55.902;13.606;2023-04-06T10:35:54;8;7;
49708;PMS5003;35601;55.902;13.606;2023-04-06T10:38:19;10;8;
49708;PMS5003;35601;55.902;13.606;2023-04-06T10:40:43;8;8;
49708;PMS5003;35601;55.902;13.606;2023-04-06T10:43:09;11;10;
49708;PMS5003;35601;55.902;13.606;2023-04-06T10:45:33;12;11;
49708;PMS5003;35601;55.902;13.606;2023-04-06T10:47:59;9;9;
49708;PMS5003;35601;55.902;13.606;2023-04-06T10:50:24;11;9;
49708;PMS5003;35601;55.902;13.606;2023-04-06T10:55:15;9;7;
49708;PMS5003;35601;55.902;13.606;2023-04-06T10:57:40;7;7;
49708;PMS5003;35601;55.902;13.606;2023-04-06T11:00:05;14;11;
49708;PMS5003;35601;55.902;13.606;2023-04-06T11:02:30;18;15;
49708;PMS5003;35601;55.902;13.606;2023-04-06T11:04:56;14;14;
49708;PMS5003;35601;55.902;13.606;2023-04-06T11:07:22;16;12;
49708;PMS5003;35601;55.902;13.606;2023-04-06T11:09:49;12;12;
49708;PMS5003;35601;55.902;13.606;2023-04-06T11:14:37;13;13;
49708;PMS5003;35601;55.902;13.606;2023-04-06T11:17:03;14;14;
49708;PMS5003;35601;55.902;13.606;2023-04-06T11:19:28;13;10;
49708;PMS5003;35601;55.902;13.606;2023-04-06T11:21:54;12;12;
49708;PMS5003;35601;55.902;13.606;2023-04-06T11:24:19;12;11;
49708;PMS5003;35601;55.902;13.606;2023-04-06T11:26:45;13;10;
49708;PMS5003;35601;55.902;13.606;2023-04-06T11:29:10;12;12;
49708;PMS5003;35601;55.902;13.606;2023-04-06T11:31:39;13;11;
49708;PMS5003;35601;55.902;13.606;2023-04-06T11:34:01;14;12;
49708;PMS5003;35601;55.902;13.606;2023-04-06T11:36:27;11;11;
49708;PMS5003;35601;55.902;13.606;2023-04-06T11:38:51;10;10;
49708;PMS5003;35601;55.902;13.606;2023-04-06T11:41:17;12;11;
49708;PMS5003;35601;55.902;13.606;2023-04-06T11:43:46;13;11;
49708;PMS5003;35601;55.902;13.606;2023-04-06T11:46:08;9;9;
49708;PMS5003;35601;55.902;13.606;2023-04-06T11:48:43;12;12;
49708;PMS5003;35601;55.902;13.606;2023-04-06T11:50:58;8;8;
49708;PMS5003;35601;55.902;13.606;2023-04-06T11:53:23;13;11;
49708;PMS5003;35601;55.902;13.606;2023-04-06T11:55:49;15;11;
49708;PMS5003;35601;55.902;13.606;2023-04-06T11:58:14;11;10;
49708;PMS5003;35601;55.902;13.606;2023-04-06T12:00:40;12;11;
49708;PMS5003;35601;55.902;13.606;2023-04-06T12:03:05;12;11;
49708;PMS5003;35601;55.902;13.606;2023-04-06T12:05:30;15;14;
49708;PMS5003;35601;55.902;13.606;2023-04-06T12:07:56;16;11;
49708;PMS5003;35601;55.902;13.606;2023-04-06T12:10:22;17;16;
49708;PMS5003;35601;55.902;13.606;2023-04-06T12:12:48;12;11;
49708;PMS5003;35601;55.902;13.606;2023-04-06T12:15:13;13;13;
49708;PMS5003;35601;55.902;13.606;2023-04-06T12:17:39;15;11;
49708;PMS5003;35601;55.902;13.606;2023-04-06T12:20:04;17;14;
49708;PMS5003;35601;55.902;13.606;2023-04-06T12:22:29;15;12;
49708;PMS5003;35601;55.902;13.606;2023-04-06T12:24:54;12;11;
49708;PMS5003;35601;55.902;13.606;2023-04-06T12:27:20;13;12;
49708;PMS5003;35601;55.902;13.606;2023-04-06T12:29:45;13;12;
49708;PMS5003;35601;55.902;13.606;2023-04-06T12:32:10;13;13;
49708;PMS5003;35601;55.902;13.606;2023-04-06T12:34:37;13;13;
49708;PMS5003;35601;55.902;13.606;2023-04-06T12:37:01;17;15;
49708;PMS5003;35601;55.902;13.606;2023-04-06T12:39:27;13;12;
49708;PMS5003;35601;55.902;13.606;2023-04-06T12:41:52;16;15;
49708;PMS5003;35601;55.902;13.606;2023-04-06T12:44:18;15;14;
49708;PMS5003;35601;55.902;13.606;2023-04-06T12:46:48;12;12;
49708;PMS5003;35601;55.902;13.606;2023-04-06T12:49:09;24;18;
49708;PMS5003;35601;55.902;13.606;2023-04-06T12:51:34;15;14;
49708;PMS5003;35601;55.902;13.606;2023-04-06T12:54:00;22;20;
49708;PMS5003;35601;55.902;13.606;2023-04-06T12:56:26;17;15;
49708;PMS5003;35601;55.902;13.606;2023-04-06T12:58:52;18;16;
49708;PMS5003;35601;55.902;13.606;2023-04-06T13:01:17;20;18;
49708;PMS5003;35601;55.902;13.606;2023-04-06T13:03:43;21;14;
49708;PMS5003;35601;55.902;13.606;2023-04-06T13:06:08;13;13;
49708;PMS5003;35601;55.902;13.606;2023-04-06T13:08:34;15;15;
49708;PMS5003;35601;55.902;13.606;2023-04-06T13:10:59;25;21;
49708;PMS5003;35601;55.902;13.606;2023-04-06T13:13:24;20;18;
49708;PMS5003;35601;55.902;13.606;2023-04-06T13:15:49;19;18;
49708;PMS5003;35601;55.902;13.606;2023-04-06T13:18:14;17;16;
49708;PMS5003;35601;55.902;13.606;2023-04-06T13:20:40;18;13;
49708;PMS5003;35601;55.902;13.606;2023-04-06T13:23:05;18;16;
49708;PMS5003;35601;55.902;13.606;2023-04-06T13:25:30;18;18;
49708;PMS5003;35601;55.902;13.606;2023-04-06T13:27:56;22;18;
49708;PMS5003;35601;55.902;13.606;2023-04-06T13:30:21;18;16;
49708;PMS5003;35601;55.902;13.606;2023-04-06T13:32:46;20;17;
49708;PMS5003;35601;55.902;13.606;2023-04-06T13:35:12;24;22;
49708;PMS5003;35601;55.902;13.606;2023-04-06T13:37:37;17;16;
49708;PMS5003;35601;55.902;13.606;2023-04-06T13:40:04;21;19;
49708;PMS5003;35601;55.902;13.606;2023-04-06T13:42:28;23;23;
49708;PMS5003;35601;55.902;13.606;2023-04-06T13:44:53;23;22;
49708;PMS5003;35601;55.902;13.606;2023-04-06T13:47:19;18;17;
49708;PMS5003;35601;55.902;13.606;2023-04-06T13:49:44;24;22;
49708;PMS5003;35601;55.902;13.606;2023-04-06T13:52:09;19;17;
49708;PMS5003;35601;55.902;13.606;2023-04-06T13:54:34;20;16;
49708;PMS5003;35601;55.902;13.606;2023-04-06T13:56:59;15;15;
49708;PMS5003;35601;55.902;13.606;2023-04-06T13:59:25;22;18;
49708;PMS5003;35601;55.902;13.606;2023-04-06T14:01:50;16;16;
49708;PMS5003;35601;55.902;13.606;2023-04-06T14:04:15;23;22;
49708;PMS5003;35601;55.902;13.606;2023-04-06T14:06:40;22;19;
49708;PMS5003;35601;55.902;13.606;2023-04-06T14:09:06;18;17;
49708;PMS5003;35601;55.902;13.606;2023-04-06T14:11:31;21;18;
49708;PMS5003;35601;55.902;13.606;2023-04-06T14:13:57;20;16;
49708;PMS5003;35601;55.902;13.606;2023-04-06T14:16:23;19;16;
49708;PMS5003;35601;55.902;13.606;2023-04-06T14:18:47;24;20;
49708;PMS5003;35601;55.902;13.606;2023-04-06T14:21:12;16;15;
49708;PMS5003;35601;55.902;13.606;2023-04-06T14:23:37;21;17;
49708;PMS5003;35601;55.902;13.606;2023-04-06T14:26:03;18;16;
49708;PMS5003;35601;55.902;13.606;2023-04-06T14:28:27;17;16;
49708;PMS5003;35601;55.902;13.606;2023-04-06T14:30:53;17;15;
49708;PMS5003;35601;55.902;13.606;2023-04-06T14:33:19;19;17;
49708;PMS5003;35601;55.902;13.606;2023-04-06T14:35:44;18;16;
49708;PMS5003;35601;55.902;13.606;2023-04-06T14:38:10;25;21;
49708;PMS5003;35601;55.902;13.606;2023-04-06T14:40:36;21;17;
49708;PMS5003;35601;55.902;13.606;2023-04-06T14:43:02;20;17;
49708;PMS5003;35601;55.902;13.606;2023-04-06T14:45:27;19;18;
49708;PMS5003;35601;55.902;13.606;2023-04-06T14:47:53;18;15;
49708;PMS5003;35601;55.902;13.606;2023-04-06T14:50:19;21;19;
49708;PMS5003;35601;55.902;13.606;2023-04-06T14:52:45;22;19;
49708;PMS5003;35601;55.902;13.606;2023-04-06T14:55:10;18;17;
49708;PMS5003;35601;55.902;13.606;2023-04-06T14:57:35;18;15;
49708;PMS5003;35601;55.902;13.606;2023-04-06T15:00:01;19;17;
49708;PMS5003;35601;55.902;13.606;2023-04-06T15:02:26;17;15;
49708;PMS5003;35601;55.902;13.606;2023-04-06T15:04:52;18;17;
49708;PMS5003;35601;55.902;13.606;2023-04-06T15:07:17;16;14;
49708;PMS5003;35601;55.902;13.606;2023-04-06T15:09:43;18;18;
49708;PMS5003;35601;55.902;13.606;2023-04-06T15:12:08;19;16;
49708;PMS5003;35601;55.902;13.606;2023-04-06T15:14:34;20;15;
49708;PMS5003;35601;55.902;13.606;2023-04-06T15:16:59;16;16;
49708;PMS5003;35601;55.902;13.606;2023-04-06T15:19:27;16;15;
49708;PMS5003;35601;55.902;13.606;2023-04-06T15:21:51;22;20;
49708;PMS5003;35601;55.902;13.606;2023-04-06T15:24:18;17;16;
49708;PMS5003;35601;55.902;13.606;2023-04-06T15:26:43;20;15;
49708;PMS5003;35601;55.902;13.606;2023-04-06T15:29:06;15;14;
49708;PMS5003;35601;55.902;13.606;2023-04-06T15:31:33;17;14;
49708;PMS5003;35601;55.902;13.606;2023-04-06T15:33:58;12;12;
49708;PMS5003;35601;55.902;13.606;2023-04-06T15:36:23;14;14;
49708;PMS5003;35601;55.902;13.606;2023-04-06T15:38:48;19;18;
49708;PMS5003;35601;55.902;13.606;2023-04-06T15:41:14;17;16;
49708;PMS5003;35601;55.902;13.606;2023-04-06T15:43:40;17;15;
49708;PMS5003;35601;55.902;13.606;2023-04-06T15:46:05;14;13;
49708;PMS5003;35601;55.902;13.606;2023-04-06T15:48:31;19;18;
49708;PMS5003;35601;55.902;13.606;2023-04-06T15:50:56;16;16;
49708;PMS5003;35601;55.902;13.606;2023-04-06T15:53:23;16;14;
49708;PMS5003;35601;55.902;13.606;2023-04-06T15:55:46;15;14;
49708;PMS5003;35601;55.902;13.606;2023-04-06T15:58:12;18;15;
49708;PMS5003;35601;55.902;13.606;2023-04-06T16:00:38;18;16;
49708;PMS5003;35601;55.902;13.606;2023-04-06T16:03:04;15;13;
49708;PMS5003;35601;55.902;13.606;2023-04-06T16:05:29;12;12;
49708;PMS5003;35601;55.902;13.606;2023-04-06T16:07:55;15;12;
49708;PMS5003;35601;55.902;13.606;2023-04-06T16:10:20;12;12;